PIT weather

Pittsburgh International Airport
Pittsburgh, Pennsylvania, United States

Public forecast

Using degrees Fahrenheit for public forecast. Weather courtesy of forecast.io.

Current aviation weather report (METAR) for Pittsburgh International Airport

Retrieved 2019/10/16 19:51 UTC (43 minutes ago):

KPIT 161951Z 27009G22KT 10SM SCT026 BKN033 OVC041 09/04 A2966 RMK AO2 SLP051 T00940039

Aviation forecast (TAF) for Pittsburgh International Airport

Retrieved 2019/10/16 18:27 UTC (2 hours ago):

TAF KPIT 161724Z 1618/1724 26011G19KT P6SM OVC025 TEMPO 1618/1621 SCT025 BKN040 FM170000 26013G22KT P6SM VCSH OVC015 FM171200 28013G21KT P6SM OVC020